sensor_id;sensor_type;location;lat;lon;timestamp;temperature;humidity
30097;DHT22;16915;51.466;3.610;2023-09-12T00:01:22;18.60;99.90
30097;DHT22;16915;51.466;3.610;2023-09-12T00:03:48;18.50;99.90
30097;DHT22;16915;51.466;3.610;2023-09-12T00:06:13;18.50;99.90
30097;DHT22;16915;51.466;3.610;2023-09-12T00:08:39;18.50;99.90
30097;DHT22;16915;51.466;3.610;2023-09-12T00:11:09;18.50;99.90
30097;DHT22;16915;51.466;3.610;2023-09-12T00:13:38;18.50;99.90
30097;DHT22;16915;51.466;3.610;2023-09-12T00:16:03;18.40;99.90
30097;DHT22;16915;51.466;3.610;2023-09-12T00:18:30;18.50;99.90
30097;DHT22;16915;51.466;3.610;2023-09-12T00:20:56;18.40;99.90
30097;DHT22;16915;51.466;3.610;2023-09-12T00:23:22;18.40;99.90
30097;DHT22;16915;51.466;3.610;2023-09-12T00:25:50;18.40;99.90
30097;DHT22;16915;51.466;3.610;2023-09-12T00:28:16;18.30;99.90
30097;DHT22;16915;51.466;3.610;2023-09-12T00:30:42;18.40;99.90
30097;DHT22;16915;51.466;3.610;2023-09-12T00:33:08;18.40;99.90
30097;DHT22;16915;51.466;3.610;2023-09-12T00:35:33;18.40;99.90
30097;DHT22;16915;51.466;3.610;2023-09-12T00:37:59;18.30;99.90
30097;DHT22;16915;51.466;3.610;2023-09-12T00:40:24;18.30;99.90
30097;DHT22;16915;51.466;3.610;2023-09-12T00:42:50;18.30;99.90
30097;DHT22;16915;51.466;3.610;2023-09-12T00:45:15;18.40;99.90
30097;DHT22;16915;51.466;3.610;2023-09-12T00:47:41;18.30;99.90
30097;DHT22;16915;51.466;3.610;2023-09-12T00:50:08;18.30;99.90
30097;DHT22;16915;51.466;3.610;2023-09-12T00:52:34;18.20;99.90
30097;DHT22;16915;51.466;3.610;2023-09-12T00:55:02;18.20;99.90
30097;DHT22;16915;51.466;3.610;2023-09-12T00:57:28;18.20;99.90
30097;DHT22;16915;51.466;3.610;2023-09-12T00:59:54;18.10;99.90
30097;DHT22;16915;51.466;3.610;2023-09-12T01:02:20;18.10;99.90
30097;DHT22;16915;51.466;3.610;2023-09-12T01:04:48;18.10;99.90
30097;DHT22;16915;51.466;3.610;2023-09-12T01:07:14;18.10;99.90
30097;DHT22;16915;51.466;3.610;2023-09-12T01:09:40;18.20;99.90
30097;DHT22;16915;51.466;3.610;2023-09-12T01:12:06;18.10;99.90
30097;DHT22;16915;51.466;3.610;2023-09-12T01:14:32;18.10;99.90
30097;DHT22;16915;51.466;3.610;2023-09-12T01:16:58;18.20;99.90
30097;DHT22;16915;51.466;3.610;2023-09-12T01:19:25;18.20;99.90
30097;DHT22;16915;51.466;3.610;2023-09-12T01:22:25;18.20;99.90
30097;DHT22;16915;51.466;3.610;2023-09-12T01:25:47;18.20;99.90
30097;DHT22;16915;51.466;3.610;2023-09-12T01:27:48;18.30;99.90
30097;DHT22;16915;51.466;3.610;2023-09-12T01:30:18;18.30;99.90
30097;DHT22;16915;51.466;3.610;2023-09-12T01:32:46;18.30;99.90
30097;DHT22;16915;51.466;3.610;2023-09-12T01:35:12;18.30;99.90
30097;DHT22;16915;51.466;3.610;2023-09-12T01:37:37;18.30;99.90
30097;DHT22;16915;51.466;3.610;2023-09-12T01:40:03;18.30;99.90
30097;DHT22;16915;51.466;3.610;2023-09-12T01:42:37;18.40;99.90
30097;DHT22;16915;51.466;3.610;2023-09-12T01:45:05;18.30;99.90
30097;DHT22;16915;51.466;3.610;2023-09-12T01:47:33;18.30;99.90
30097;DHT22;16915;51.466;3.610;2023-09-12T01:50:01;18.30;99.90
30097;DHT22;16915;51.466;3.610;2023-09-12T01:52:28;18.40;99.90
30097;DHT22;16915;51.466;3.610;2023-09-12T01:54:54;18.40;99.90
30097;DHT22;16915;51.466;3.610;2023-09-12T01:57:20;18.40;99.90
30097;DHT22;16915;51.466;3.610;2023-09-12T01:59:47;18.40;99.90
30097;DHT22;16915;51.466;3.610;2023-09-12T02:02:14;18.50;99.90
30097;DHT22;16915;51.466;3.610;2023-09-12T02:04:39;18.50;99.90
30097;DHT22;16915;51.466;3.610;2023-09-12T02:07:05;18.50;99.90
30097;DHT22;16915;51.466;3.610;2023-09-12T02:09:30;18.50;99.90
30097;DHT22;16915;51.466;3.610;2023-09-12T02:11:56;18.50;99.90
30097;DHT22;16915;51.466;3.610;2023-09-12T02:14:22;18.50;99.90
30097;DHT22;16915;51.466;3.610;2023-09-12T02:16:47;18.40;99.90
30097;DHT22;16915;51.466;3.610;2023-09-12T02:19:13;18.40;99.90
30097;DHT22;16915;51.466;3.610;2023-09-12T02:21:38;18.50;99.90
30097;DHT22;16915;51.466;3.610;2023-09-12T02:24:04;18.50;99.90
30097;DHT22;16915;51.466;3.610;2023-09-12T02:26:30;18.50;99.90
30097;DHT22;16915;51.466;3.610;2023-09-12T02:28:56;18.50;99.90
30097;DHT22;16915;51.466;3.610;2023-09-12T02:31:22;18.50;99.90
30097;DHT22;16915;51.466;3.610;2023-09-12T02:33:48;18.50;99.90
30097;DHT22;16915;51.466;3.610;2023-09-12T02:36:13;18.40;99.90
30097;DHT22;16915;51.466;3.610;2023-09-12T02:38:39;18.40;99.90
30097;DHT22;16915;51.466;3.610;2023-09-12T02:41:04;18.50;99.90
30097;DHT22;16915;51.466;3.610;2023-09-12T02:43:30;18.50;99.90
30097;DHT22;16915;51.466;3.610;2023-09-12T02:45:56;18.50;99.90
30097;DHT22;16915;51.466;3.610;2023-09-12T02:48:21;18.50;99.90
30097;DHT22;16915;51.466;3.610;2023-09-12T02:50:47;18.50;99.90
30097;DHT22;16915;51.466;3.610;2023-09-12T02:53:12;18.50;99.90
30097;DHT22;16915;51.466;3.610;2023-09-12T02:55:42;18.60;99.90
30097;DHT22;16915;51.466;3.610;2023-09-12T02:58:08;18.50;99.90
30097;DHT22;16915;51.466;3.610;2023-09-12T03:00:38;18.60;99.90
30097;DHT22;16915;51.466;3.610;2023-09-12T03:03:05;18.60;99.90
30097;DHT22;16915;51.466;3.610;2023-09-12T03:05:30;18.60;99.90
30097;DHT22;16915;51.466;3.610;2023-09-12T03:07:56;18.60;99.90
30097;DHT22;16915;51.466;3.610;2023-09-12T03:10:24;18.60;99.90
30097;DHT22;16915;51.466;3.610;2023-09-12T03:12:50;18.60;99.90
30097;DHT22;16915;51.466;3.610;2023-09-12T03:15:15;18.60;99.90
30097;DHT22;16915;51.466;3.610;2023-09-12T03:17:41;18.60;99.90
30097;DHT22;16915;51.466;3.610;2023-09-12T03:20:07;18.60;99.90
30097;DHT22;16915;51.466;3.610;2023-09-12T03:22:34;18.60;99.90
30097;DHT22;16915;51.466;3.610;2023-09-12T03:25:04;18.60;99.90
30097;DHT22;16915;51.466;3.610;2023-09-12T03:27:29;18.60;99.90
30097;DHT22;16915;51.466;3.610;2023-09-12T03:29:55;18.70;99.90
30097;DHT22;16915;51.466;3.610;2023-09-12T03:32:21;18.60;99.90
30097;DHT22;16915;51.466;3.610;2023-09-12T03:34:47;18.60;99.90
30097;DHT22;16915;51.466;3.610;2023-09-12T03:37:12;18.60;99.90
30097;DHT22;16915;51.466;3.610;2023-09-12T03:39:38;18.60;99.90
30097;DHT22;16915;51.466;3.610;2023-09-12T03:42:04;18.60;99.90
30097;DHT22;16915;51.466;3.610;2023-09-12T03:44:30;18.60;99.90
30097;DHT22;16915;51.466;3.610;2023-09-12T03:46:55;18.60;99.90
30097;DHT22;16915;51.466;3.610;2023-09-12T03:49:22;18.50;99.90
30097;DHT22;16915;51.466;3.610;2023-09-12T03:51:47;18.60;99.90
30097;DHT22;16915;51.466;3.610;2023-09-12T03:54:13;18.50;99.90
30097;DHT22;16915;51.466;3.610;2023-09-12T03:56:39;18.50;99.90
30097;DHT22;16915;51.466;3.610;2023-09-12T03:59:04;18.50;99.90
30097;DHT22;16915;51.466;3.610;2023-09-12T04:01:30;18.60;99.90
30097;DHT22;16915;51.466;3.610;2023-09-12T04:03:55;18.60;99.90
30097;DHT22;16915;51.466;3.610;2023-09-12T04:06:21;18.60;99.90
30097;DHT22;16915;51.466;3.610;2023-09-12T04:08:47;18.60;99.90
30097;DHT22;16915;51.466;3.610;2023-09-12T04:11:12;18.50;99.90
30097;DHT22;16915;51.466;3.610;2023-09-12T04:13:38;18.40;99.90
30097;DHT22;16915;51.466;3.610;2023-09-12T04:16:03;18.50;99.90
30097;DHT22;16915;51.466;3.610;2023-09-12T04:18:29;18.50;99.90
30097;DHT22;16915;51.466;3.610;2023-09-12T04:20:55;18.50;99.90
30097;DHT22;16915;51.466;3.610;2023-09-12T04:23:22;18.50;99.90
30097;DHT22;16915;51.466;3.610;2023-09-12T04:25:48;18.50;99.90
30097;DHT22;16915;51.466;3.610;2023-09-12T04:28:13;18.60;99.90
30097;DHT22;16915;51.466;3.610;2023-09-12T04:30:39;18.60;99.90
30097;DHT22;16915;51.466;3.610;2023-09-12T04:33:05;18.60;99.90
30097;DHT22;16915;51.466;3.610;2023-09-12T04:35:33;18.60;99.90
30097;DHT22;16915;51.466;3.610;2023-09-12T04:37:59;18.60;99.90
30097;DHT22;16915;51.466;3.610;2023-09-12T04:40:24;18.60;99.90
30097;DHT22;16915;51.466;3.610;2023-09-12T04:42:50;18.60;99.90
30097;DHT22;16915;51.466;3.610;2023-09-12T04:45:15;18.60;99.90
30097;DHT22;16915;51.466;3.610;2023-09-12T04:47:41;18.60;99.90
30097;DHT22;16915;51.466;3.610;2023-09-12T04:50:07;18.70;99.90
30097;DHT22;16915;51.466;3.610;2023-09-12T04:52:33;18.70;99.90
30097;DHT22;16915;51.466;3.610;2023-09-12T04:54:58;18.70;99.90
30097;DHT22;16915;51.466;3.610;2023-09-12T04:57:24;18.80;99.90
30097;DHT22;16915;51.466;3.610;2023-09-12T04:59:51;18.80;99.90
30097;DHT22;16915;51.466;3.610;2023-09-12T05:02:17;18.80;99.90
30097;DHT22;16915;51.466;3.610;2023-09-12T05:04:42;18.70;99.90
30097;DHT22;16915;51.466;3.610;2023-09-12T05:07:08;18.80;99.90
30097;DHT22;16915;51.466;3.610;2023-09-12T05:09:34;18.80;99.90
30097;DHT22;16915;51.466;3.610;2023-09-12T05:11:59;18.80;99.90
30097;DHT22;16915;51.466;3.610;2023-09-12T05:14:25;18.80;99.90
30097;DHT22;16915;51.466;3.610;2023-09-12T05:16:50;18.80;99.90
30097;DHT22;16915;51.466;3.610;2023-09-12T05:19:16;18.80;99.90
30097;DHT22;16915;51.466;3.610;2023-09-12T05:21:41;18.80;99.90
30097;DHT22;16915;51.466;3.610;2023-09-12T05:24:07;18.80;99.90
30097;DHT22;16915;51.466;3.610;2023-09-12T05:26:33;18.80;99.90
30097;DHT22;16915;51.466;3.610;2023-09-12T05:28:58;18.70;99.90
30097;DHT22;16915;51.466;3.610;2023-09-12T05:31:24;18.70;99.90
30097;DHT22;16915;51.466;3.610;2023-09-12T05:33:50;18.70;99.90
30097;DHT22;16915;51.466;3.610;2023-09-12T05:36:15;18.70;99.90
30097;DHT22;16915;51.466;3.610;2023-09-12T05:38:41;18.70;99.90
30097;DHT22;16915;51.466;3.610;2023-09-12T05:41:06;18.70;99.90
30097;DHT22;16915;51.466;3.610;2023-09-12T05:43:32;18.70;99.90
30097;DHT22;16915;51.466;3.610;2023-09-12T05:45:57;18.70;99.90
30097;DHT22;16915;51.466;3.610;2023-09-12T05:48:23;18.70;99.90
30097;DHT22;16915;51.466;3.610;2023-09-12T05:50:49;18.70;99.90
30097;DHT22;16915;51.466;3.610;2023-09-12T05:53:14;18.70;99.90
30097;DHT22;16915;51.466;3.610;2023-09-12T05:55:40;18.70;99.90
30097;DHT22;16915;51.466;3.610;2023-09-12T05:58:06;18.70;99.90
30097;DHT22;16915;51.466;3.610;2023-09-12T06:00:32;18.80;99.90
30097;DHT22;16915;51.466;3.610;2023-09-12T06:02:58;18.90;99.90
30097;DHT22;16915;51.466;3.610;2023-09-12T06:05:24;18.90;99.90
30097;DHT22;16915;51.466;3.610;2023-09-12T06:07:49;18.90;99.90
30097;DHT22;16915;51.466;3.610;2023-09-12T06:10:15;18.80;99.90
30097;DHT22;16915;51.466;3.610;2023-09-12T06:12:41;18.80;99.90
30097;DHT22;16915;51.466;3.610;2023-09-12T06:15:07;18.90;99.90
30097;DHT22;16915;51.466;3.610;2023-09-12T06:17:32;19.00;99.90
30097;DHT22;16915;51.466;3.610;2023-09-12T06:19:58;19.10;99.90
30097;DHT22;16915;51.466;3.610;2023-09-12T06:22:24;19.00;99.90
30097;DHT22;16915;51.466;3.610;2023-09-12T06:24:50;19.00;99.90
30097;DHT22;16915;51.466;3.610;2023-09-12T06:27:16;19.10;99.90
30097;DHT22;16915;51.466;3.610;2023-09-12T06:29:46;19.10;99.90
30097;DHT22;16915;51.466;3.610;2023-09-12T06:32:19;19.10;99.90
30097;DHT22;16915;51.466;3.610;2023-09-12T06:34:45;19.10;99.90
30097;DHT22;16915;51.466;3.610;2023-09-12T06:37:11;19.10;99.90
30097;DHT22;16915;51.466;3.610;2023-09-12T06:39:37;19.10;99.90
30097;DHT22;16915;51.466;3.610;2023-09-12T06:42:03;19.20;99.90
30097;DHT22;16915;51.466;3.610;2023-09-12T06:44:29;19.30;99.90
30097;DHT22;16915;51.466;3.610;2023-09-12T06:46:54;19.20;99.90
30097;DHT22;16915;51.466;3.610;2023-09-12T06:49:20;19.20;99.90
30097;DHT22;16915;51.466;3.610;2023-09-12T06:51:45;19.20;99.90
30097;DHT22;16915;51.466;3.610;2023-09-12T06:54:11;19.10;99.90
30097;DHT22;16915;51.466;3.610;2023-09-12T06:56:38;19.10;99.90
30097;DHT22;16915;51.466;3.610;2023-09-12T06:59:04;19.10;99.90
30097;DHT22;16915;51.466;3.610;2023-09-12T07:01:30;19.10;99.90
30097;DHT22;16915;51.466;3.610;2023-09-12T07:03:55;19.20;99.90
30097;DHT22;16915;51.466;3.610;2023-09-12T07:06:22;19.30;99.90
30097;DHT22;16915;51.466;3.610;2023-09-12T07:08:48;19.50;99.90
30097;DHT22;16915;51.466;3.610;2023-09-12T07:11:13;19.60;99.90
30097;DHT22;16915;51.466;3.610;2023-09-12T07:13:39;19.50;99.90
30097;DHT22;16915;51.466;3.610;2023-09-12T07:16:05;19.50;99.90
30097;DHT22;16915;51.466;3.610;2023-09-12T07:18:31;19.50;99.90
30097;DHT22;16915;51.466;3.610;2023-09-12T07:21:01;19.40;99.90
30097;DHT22;16915;51.466;3.610;2023-09-12T07:23:27;19.30;99.90
30097;DHT22;16915;51.466;3.610;2023-09-12T07:25:54;19.30;99.90
30097;DHT22;16915;51.466;3.610;2023-09-12T07:28:23;19.30;99.90
30097;DHT22;16915;51.466;3.610;2023-09-12T07:30:48;19.20;99.90
30097;DHT22;16915;51.466;3.610;2023-09-12T07:33:14;19.20;99.90
30097;DHT22;16915;51.466;3.610;2023-09-12T07:35:40;19.20;99.90
30097;DHT22;16915;51.466;3.610;2023-09-12T07:38:05;19.20;99.90
30097;DHT22;16915;51.466;3.610;2023-09-12T07:40:31;19.20;99.90
30097;DHT22;16915;51.466;3.610;2023-09-12T07:42:56;19.20;99.90
30097;DHT22;16915;51.466;3.610;2023-09-12T07:45:22;19.20;99.90
30097;DHT22;16915;51.466;3.610;2023-09-12T07:47:48;19.20;99.90
30097;DHT22;16915;51.466;3.610;2023-09-12T07:50:14;19.20;99.90
30097;DHT22;16915;51.466;3.610;2023-09-12T07:52:39;19.20;99.90
30097;DHT22;16915;51.466;3.610;2023-09-12T07:55:06;19.10;99.90
30097;DHT22;16915;51.466;3.610;2023-09-12T07:57:32;19.10;99.90
30097;DHT22;16915;51.466;3.610;2023-09-12T07:59:58;19.20;99.90
30097;DHT22;16915;51.466;3.610;2023-09-12T08:02:24;19.30;99.90
30097;DHT22;16915;51.466;3.610;2023-09-12T08:04:50;19.50;99.90
30097;DHT22;16915;51.466;3.610;2023-09-12T08:07:24;19.40;99.90
30097;DHT22;16915;51.466;3.610;2023-09-12T08:09:52;19.50;99.90
30097;DHT22;16915;51.466;3.610;2023-09-12T08:12:19;19.50;99.90
30097;DHT22;16915;51.466;3.610;2023-09-12T08:14:45;19.50;99.90
30097;DHT22;16915;51.466;3.610;2023-09-12T08:17:11;19.50;99.90
30097;DHT22;16915;51.466;3.610;2023-09-12T08:19:37;19.50;99.90
30097;DHT22;16915;51.466;3.610;2023-09-12T08:22:03;19.50;99.90
30097;DHT22;16915;51.466;3.610;2023-09-12T08:24:29;19.60;99.90
30097;DHT22;16915;51.466;3.610;2023-09-12T08:26:54;19.60;99.90
30097;DHT22;16915;51.466;3.610;2023-09-12T08:29:20;19.60;99.90
30097;DHT22;16915;51.466;3.610;2023-09-12T08:31:46;19.70;99.90
30097;DHT22;16915;51.466;3.610;2023-09-12T08:34:13;19.70;99.90
30097;DHT22;16915;51.466;3.610;2023-09-12T08:36:39;19.70;99.90
30097;DHT22;16915;51.466;3.610;2023-09-12T08:39:04;19.80;99.90
30097;DHT22;16915;51.466;3.610;2023-09-12T08:41:33;19.80;99.90
30097;DHT22;16915;51.466;3.610;2023-09-12T08:44:01;19.80;99.90
30097;DHT22;16915;51.466;3.610;2023-09-12T08:46:27;19.80;99.90
30097;DHT22;16915;51.466;3.610;2023-09-12T08:48:56;19.90;99.90
30097;DHT22;16915;51.466;3.610;2023-09-12T08:51:23;19.90;99.90
30097;DHT22;16915;51.466;3.610;2023-09-12T08:53:52;19.80;99.90
30097;DHT22;16915;51.466;3.610;2023-09-12T08:56:20;19.90;99.90
30097;DHT22;16915;51.466;3.610;2023-09-12T08:58:46;19.90;99.90
30097;DHT22;16915;51.466;3.610;2023-09-12T09:01:13;19.90;99.90
30097;DHT22;16915;51.466;3.610;2023-09-12T09:03:42;19.90;99.90
30097;DHT22;16915;51.466;3.610;2023-09-12T09:06:09;19.90;99.90
30097;DHT22;16915;51.466;3.610;2023-09-12T09:08:36;19.90;99.90
30097;DHT22;16915;51.466;3.610;2023-09-12T09:11:02;19.90;99.90
30097;DHT22;16915;51.466;3.610;2023-09-12T09:13:29;19.90;99.90
30097;DHT22;16915;51.466;3.610;2023-09-12T09:16:19;19.90;99.90
30097;DHT22;16915;51.466;3.610;2023-09-12T09:18:53;19.90;99.90
30097;DHT22;16915;51.466;3.610;2023-09-12T09:21:20;20.00;99.90
30097;DHT22;16915;51.466;3.610;2023-09-12T09:23:49;20.10;99.90
30097;DHT22;16915;51.466;3.610;2023-09-12T09:26:15;20.10;99.90
30097;DHT22;16915;51.466;3.610;2023-09-12T09:28:41;20.10;99.90
30097;DHT22;16915;51.466;3.610;2023-09-12T09:31:11;20.10;99.90
30097;DHT22;16915;51.466;3.610;2023-09-12T09:33:37;20.00;99.90
30097;DHT22;16915;51.466;3.610;2023-09-12T09:36:05;20.00;99.90
30097;DHT22;16915;51.466;3.610;2023-09-12T09:38:31;20.10;99.90
30097;DHT22;16915;51.466;3.610;2023-09-12T09:40:57;20.20;99.90
30097;DHT22;16915;51.466;3.610;2023-09-12T09:43:23;20.30;99.90
30097;DHT22;16915;51.466;3.610;2023-09-12T09:45:50;20.40;99.90
30097;DHT22;16915;51.466;3.610;2023-09-12T09:48:20;20.60;99.90
30097;DHT22;16915;51.466;3.610;2023-09-12T09:50:46;20.80;99.90
30097;DHT22;16915;51.466;3.610;2023-09-12T09:53:12;21.20;99.90
30097;DHT22;16915;51.466;3.610;2023-09-12T09:55:37;21.50;99.90
30097;DHT22;16915;51.466;3.610;2023-09-12T09:58:06;21.90;99.90
30097;DHT22;16915;51.466;3.610;2023-09-12T10:00:34;22.10;99.90
30097;DHT22;16915;51.466;3.610;2023-09-12T10:03:04;22.20;99.90
30097;DHT22;16915;51.466;3.610;2023-09-12T10:05:31;22.10;99.90
30097;DHT22;16915;51.466;3.610;2023-09-12T10:07:57;22.30;99.90
30097;DHT22;16915;51.466;3.610;2023-09-12T10:10:26;22.50;99.90
30097;DHT22;16915;51.466;3.610;2023-09-12T10:12:56;22.50;99.90
30097;DHT22;16915;51.466;3.610;2023-09-12T10:15:29;22.60;99.90
30097;DHT22;16915;51.466;3.610;2023-09-12T10:17:57;22.50;99.90
30097;DHT22;16915;51.466;3.610;2023-09-12T10:20:32;22.70;99.90
30097;DHT22;16915;51.466;3.610;2023-09-12T10:23:20;22.90;99.90
30097;DHT22;16915;51.466;3.610;2023-09-12T10:25:49;22.90;99.90
30097;DHT22;16915;51.466;3.610;2023-09-12T10:28:17;23.00;99.90
30097;DHT22;16915;51.466;3.610;2023-09-12T10:30:44;23.20;99.90
30097;DHT22;16915;51.466;3.610;2023-09-12T10:33:11;23.30;99.90
30097;DHT22;16915;51.466;3.610;2023-09-12T10:35:37;23.30;99.90
30097;DHT22;16915;51.466;3.610;2023-09-12T10:38:05;23.10;99.90
30097;DHT22;16915;51.466;3.610;2023-09-12T10:40:36;23.20;99.90
30097;DHT22;16915;51.466;3.610;2023-09-12T10:43:03;23.30;99.90
30097;DHT22;16915;51.466;3.610;2023-09-12T10:45:33;23.30;99.90
30097;DHT22;16915;51.466;3.610;2023-09-12T10:48:01;23.10;99.90
30097;DHT22;16915;51.466;3.610;2023-09-12T10:50:27;23.00;99.90
30097;DHT22;16915;51.466;3.610;2023-09-12T10:52:53;22.90;99.90
30097;DHT22;16915;51.466;3.610;2023-09-12T10:55:19;22.70;99.90
30097;DHT22;16915;51.466;3.610;2023-09-12T10:58:04;22.40;99.90
30097;DHT22;16915;51.466;3.610;2023-09-12T11:00:30;22.40;99.90
30097;DHT22;16915;51.466;3.610;2023-09-12T11:05:53;22.30;99.90
30097;DHT22;16915;51.466;3.610;2023-09-12T11:08:19;22.00;99.90
30097;DHT22;16915;51.466;3.610;2023-09-12T11:11:18;22.00;99.90
30097;DHT22;16915;51.466;3.610;2023-09-12T11:13:46;21.90;99.90
30097;DHT22;16915;51.466;3.610;2023-09-12T11:16:13;22.00;99.90
30097;DHT22;16915;51.466;3.610;2023-09-12T11:19:14;21.90;99.90
30097;DHT22;16915;51.466;3.610;2023-09-12T11:21:42;21.60;99.90
30097;DHT22;16915;51.466;3.610;2023-09-12T11:24:08;21.70;99.90
30097;DHT22;16915;51.466;3.610;2023-09-12T11:26:33;21.90;99.90
30097;DHT22;16915;51.466;3.610;2023-09-12T11:29:11;22.10;99.90
30097;DHT22;16915;51.466;3.610;2023-09-12T11:31:38;22.40;99.90
30097;DHT22;16915;51.466;3.610;2023-09-12T11:34:09;22.40;99.90
30097;DHT22;16915;51.466;3.610;2023-09-12T11:36:42;22.40;99.90
30097;DHT22;16915;51.466;3.610;2023-09-12T11:39:24;22.60;99.90
30097;DHT22;16915;51.466;3.610;2023-09-12T11:41:51;22.80;99.90
30097;DHT22;16915;51.466;3.610;2023-09-12T11:44:18;22.90;99.90
30097;DHT22;16915;51.466;3.610;2023-09-12T11:46:47;23.10;99.90
30097;DHT22;16915;51.466;3.610;2023-09-12T11:49:14;22.90;99.90
30097;DHT22;16915;51.466;3.610;2023-09-12T11:52:16;22.80;99.90
30097;DHT22;16915;51.466;3.610;2023-09-12T11:54:45;22.70;99.90
30097;DHT22;16915;51.466;3.610;2023-09-12T11:57:13;22.80;99.90
30097;DHT22;16915;51.466;3.610;2023-09-12T11:59:41;22.90;99.90
30097;DHT22;16915;51.466;3.610;2023-09-12T12:02:07;22.90;99.90
30097;DHT22;16915;51.466;3.610;2023-09-12T12:04:34;23.00;99.90
30097;DHT22;16915;51.466;3.610;2023-09-12T12:07:00;23.10;99.90
30097;DHT22;16915;51.466;3.610;2023-09-12T12:09:27;23.10;99.90
30097;DHT22;16915;51.466;3.610;2023-09-12T12:11:52;23.20;99.90
30097;DHT22;16915;51.466;3.610;2023-09-12T12:14:18;23.30;99.90
30097;DHT22;16915;51.466;3.610;2023-09-12T12:16:46;23.30;99.90
30097;DHT22;16915;51.466;3.610;2023-09-12T12:19:13;23.30;99.90
30097;DHT22;16915;51.466;3.610;2023-09-12T12:21:42;23.20;99.90
30097;DHT22;16915;51.466;3.610;2023-09-12T12:24:10;23.10;99.90
30097;DHT22;16915;51.466;3.610;2023-09-12T12:26:40;23.00;99.90
30097;DHT22;16915;51.466;3.610;2023-09-12T12:29:05;22.90;99.90
30097;DHT22;16915;51.466;3.610;2023-09-12T12:31:31;22.90;99.90
30097;DHT22;16915;51.466;3.610;2023-09-12T12:33:57;23.00;99.90
30097;DHT22;16915;51.466;3.610;2023-09-12T12:36:23;23.00;99.90
30097;DHT22;16915;51.466;3.610;2023-09-12T12:38:50;23.10;99.90
30097;DHT22;16915;51.466;3.610;2023-09-12T12:41:17;23.40;99.90
30097;DHT22;16915;51.466;3.610;2023-09-12T12:43:50;23.70;99.90
30097;DHT22;16915;51.466;3.610;2023-09-12T12:46:17;23.80;99.90
30097;DHT22;16915;51.466;3.610;2023-09-12T12:48:45;23.80;99.90
30097;DHT22;16915;51.466;3.610;2023-09-12T12:51:15;23.90;99.90
30097;DHT22;16915;51.466;3.610;2023-09-12T12:53:47;24.30;99.90
30097;DHT22;16915;51.466;3.610;2023-09-12T12:56:19;25.10;99.90
30097;DHT22;16915;51.466;3.610;2023-09-12T12:59:06;25.60;99.90
30097;DHT22;16915;51.466;3.610;2023-09-12T13:01:35;26.30;99.90
30097;DHT22;16915;51.466;3.610;2023-09-12T13:04:01;26.90;99.90
30097;DHT22;16915;51.466;3.610;2023-09-12T13:06:26;27.50;99.90
30097;DHT22;16915;51.466;3.610;2023-09-12T13:08:55;27.60;99.90
30097;DHT22;16915;51.466;3.610;2023-09-12T13:11:22;26.80;99.90
30097;DHT22;16915;51.466;3.610;2023-09-12T13:13:48;26.30;99.90
30097;DHT22;16915;51.466;3.610;2023-09-12T13:16:14;25.50;99.90
30097;DHT22;16915;51.466;3.610;2023-09-12T13:18:40;25.00;99.90
30097;DHT22;16915;51.466;3.610;2023-09-12T13:21:06;24.90;99.90
30097;DHT22;16915;51.466;3.610;2023-09-12T13:23:37;25.10;99.90
30097;DHT22;16915;51.466;3.610;2023-09-12T13:26:03;25.40;99.90
30097;DHT22;16915;51.466;3.610;2023-09-12T13:28:29;25.70;99.90
30097;DHT22;16915;51.466;3.610;2023-09-12T13:30:55;26.10;99.90
30097;DHT22;16915;51.466;3.610;2023-09-12T13:33:21;26.40;99.90
30097;DHT22;16915;51.466;3.610;2023-09-12T13:35:48;26.60;99.90
30097;DHT22;16915;51.466;3.610;2023-09-12T13:38:14;26.60;99.90
30097;DHT22;16915;51.466;3.610;2023-09-12T13:40:42;26.50;99.90
30097;DHT22;16915;51.466;3.610;2023-09-12T13:43:09;26.20;99.90
30097;DHT22;16915;51.466;3.610;2023-09-12T13:45:35;25.90;99.90
30097;DHT22;16915;51.466;3.610;2023-09-12T13:48:02;25.80;99.90
30097;DHT22;16915;51.466;3.610;2023-09-12T13:50:29;25.80;99.90
30097;DHT22;16915;51.466;3.610;2023-09-12T13:52:55;26.10;99.90
30097;DHT22;16915;51.466;3.610;2023-09-12T13:55:22;26.50;99.90
30097;DHT22;16915;51.466;3.610;2023-09-12T13:57:48;26.70;99.90
30097;DHT22;16915;51.466;3.610;2023-09-12T14:00:13;26.70;99.90
30097;DHT22;16915;51.466;3.610;2023-09-12T14:02:39;26.80;99.90
30097;DHT22;16915;51.466;3.610;2023-09-12T14:05:05;27.50;99.90
30097;DHT22;16915;51.466;3.610;2023-09-12T14:07:31;28.70;99.90
30097;DHT22;16915;51.466;3.610;2023-09-12T14:09:56;29.70;99.90
30097;DHT22;16915;51.466;3.610;2023-09-12T14:12:23;29.70;99.90
30097;DHT22;16915;51.466;3.610;2023-09-12T14:14:49;29.30;99.90
30097;DHT22;16915;51.466;3.610;2023-09-12T14:17:14;29.20;99.90
30097;DHT22;16915;51.466;3.610;2023-09-12T14:19:40;29.20;99.90
30097;DHT22;16915;51.466;3.610;2023-09-12T14:22:06;28.90;99.90
30097;DHT22;16915;51.466;3.610;2023-09-12T14:24:31;28.60;99.90
30097;DHT22;16915;51.466;3.610;2023-09-12T14:26:57;28.50;99.90
30097;DHT22;16915;51.466;3.610;2023-09-12T14:29:23;28.40;99.90
30097;DHT22;16915;51.466;3.610;2023-09-12T14:31:49;28.40;99.90
30097;DHT22;16915;51.466;3.610;2023-09-12T14:34:18;28.30;99.90
30097;DHT22;16915;51.466;3.610;2023-09-12T14:36:43;28.20;99.90
30097;DHT22;16915;51.466;3.610;2023-09-12T14:39:11;28.30;99.90
30097;DHT22;16915;51.466;3.610;2023-09-12T14:41:37;28.20;99.90
30097;DHT22;16915;51.466;3.610;2023-09-12T14:44:02;28.10;99.90
30097;DHT22;16915;51.466;3.610;2023-09-12T14:46:28;28.00;99.90
30097;DHT22;16915;51.466;3.610;2023-09-12T14:48:54;27.90;99.90
30097;DHT22;16915;51.466;3.610;2023-09-12T14:51:19;27.90;99.90
30097;DHT22;16915;51.466;3.610;2023-09-12T14:53:45;28.10;99.90
30097;DHT22;16915;51.466;3.610;2023-09-12T14:56:11;28.20;99.90
30097;DHT22;16915;51.466;3.610;2023-09-12T14:58:37;28.00;99.90
30097;DHT22;16915;51.466;3.610;2023-09-12T15:01:03;27.70;99.90
30097;DHT22;16915;51.466;3.610;2023-09-12T15:03:29;27.40;99.90
30097;DHT22;16915;51.466;3.610;2023-09-12T15:05:55;27.10;99.90
30097;DHT22;16915;51.466;3.610;2023-09-12T15:08:20;26.90;99.90
30097;DHT22;16915;51.466;3.610;2023-09-12T15:10:46;26.60;99.90
30097;DHT22;16915;51.466;3.610;2023-09-12T15:13:11;26.40;99.90
30097;DHT22;16915;51.466;3.610;2023-09-12T15:15:39;26.40;99.90
30097;DHT22;16915;51.466;3.610;2023-09-12T15:18:05;26.20;99.90
30097;DHT22;16915;51.466;3.610;2023-09-12T15:20:32;26.20;99.90
30097;DHT22;16915;51.466;3.610;2023-09-12T15:22:57;26.20;99.90
30097;DHT22;16915;51.466;3.610;2023-09-12T15:25:23;26.10;99.90
30097;DHT22;16915;51.466;3.610;2023-09-12T15:27:49;25.90;99.90
30097;DHT22;16915;51.466;3.610;2023-09-12T15:30:14;25.80;99.90
30097;DHT22;16915;51.466;3.610;2023-09-12T15:32:40;25.70;99.90